Flight Track Log - Related Links

Times and Time Zones

All times are in EDT time to prevent confusion due to time zone crossing. See the UAL4108 flight status page for this flight to view local times or setup timezone preferences in your user account.

Time Position Orientation Groundspeed Altitude Reporting Facility
EDT Latitude Longitude Course Direction KTS MPH feet Rate Location/Type
Mon 20:01:07 34.7242 -92.2394 193° South 160 184 600  Level Memphis Center
Mon 20:01:38 34.7008 -92.2619 218° Southwest 183 211 2,000 2,703 Climbing Memphis Center
Mon 20:02:38 34.6425 -92.2581 177° South 236 272 4,700 2,571 Climbing Memphis Center
Mon 20:03:58 34.5656 -92.2386 168° South 271 312 8,000 2,743 Climbing Memphis Center
Mon 20:04:00 34.4875 -92.3933 190° South  Level Estimated
Mon 20:04:58 34.4675 -92.2264 174° South 306 352 11,100  Level Memphis Center
Mon 20:05:00 34.3982 -92.3619 164° South  Level FlightAware Approximate
Mon 20:05:58 34.3839 -92.2372 186° South 313 360 12,100  Level Memphis Center
Mon 20:06:00 34.3181 -92.4191 193° South  Level Estimated
Mon 20:06:58 34.2814 -92.2575 189° South 349 402 13,800  Level Memphis Center
Mon 20:07:58 34.1767 -92.2778 189° South 377 434 15,600 1,750 Climbing Memphis Center
Mon 20:08:58 34.0681 -92.3006 190° South 395 455 17,300 1,600 Climbing Memphis Center
Mon 20:09:58 33.9650 -92.3383 197° South 400 460 18,800 1,500 Climbing Memphis Center
Mon 20:10:58 33.9361 -92.4503 253° West 326 375 20,300 1,550 Climbing Memphis Center
Mon 20:11:58 33.9089 -92.5797 256° West 331 381 21,900 1,650 Climbing Memphis Center
Mon 20:12:58 33.9406 -92.6756 292° West 331 381 23,600 1,600 Climbing Memphis Center
Mon 20:13:58 34.0311 -92.6306 22° Northeast 247 284 25,100 1,313 Climbing Memphis Center
Mon 20:16:19 33.8656 -92.4233 134° Southeast 457 526 28,000 866 Climbing Fort Worth Center
Mon 20:17:19 33.7403 -92.4231 180° South 496 571 28,000  Level Fort Worth Center
Mon 20:18:19 33.6108 -92.4206 179° South 472 543 28,000  Level Fort Worth Center
Mon 20:19:19 33.4750 -92.4183 179° South 472 543 28,000  Level Fort Worth Center
Mon 20:20:19 33.3419 -92.4283 184° South 483 556 28,000  Level Fort Worth Center
Mon 20:21:19 33.2136 -92.4528 189° South 477 549 28,000  Level Fort Worth Center
Mon 20:22:19 33.0789 -92.4778 189° South 482 555 28,000  Level Fort Worth Center
Mon 20:23:19 32.9442 -92.5000 188° South 482 555 28,000  Level Fort Worth Center
Mon 20:24:19 32.8383 -92.5206 189° South 482 555 28,000  Level Fort Worth Center
Mon 20:25:19 32.6919 -92.5089 176° South 477 549 28,000  Level Fort Worth Center
Mon 20:27:17 32.4225 -92.5233 183° South 474 545 28,000  Level Houston Center
Mon 20:28:18 32.2978 -92.5675 197° South 467 537 28,000  Level Houston Center
Mon 20:29:20 32.1736 -92.6094 196° South 465 535 28,000  Level Houston Center
Mon 20:30:22 32.0489 -92.6531 197° South 469 540 28,000  Level Houston Center
Mon 20:31:24 31.9342 -92.7156 205° Southwest 458 527 28,000  Level Houston Center
Mon 20:32:26 31.8197 -92.8261 219° Southwest 447 514 28,000  Level Houston Center
Mon 20:33:28 31.7253 -92.9183 220° Southwest 444 511 28,000  Level Houston Center
Mon 20:34:29 31.6300 -93.0094 219° Southwest 443 510 28,000  Level Houston Center
Mon 20:35:31 31.5422 -93.0925 219° Southwest 412 474 28,000  Level Houston Center
Mon 20:36:33 31.4544 -93.1769 219° Southwest 408 470 28,000  Level Houston Center
Mon 20:37:34 31.3667 -93.2625 220° Southwest 411 473 28,000  Level Houston Center
Mon 20:38:36 31.2739 -93.3500 219° Southwest 412 474 28,000  Level Houston Center
Mon 20:39:38 31.1711 -93.4475 219° Southwest 413 475 28,000  Level Houston Center
Mon 20:40:40 31.0825 -93.5317 219° Southwest 412 474 28,000  Level Houston Center
Mon 20:41:42 30.9942 -93.6172 220° Southwest 414 476 28,000  Level Houston Center
Mon 20:42:44 30.9044 -93.7014 219° Southwest 416 479 28,000 -585 Level Houston Center
Mon 20:43:45 30.8147 -93.7856 219° Southwest 416 479 26,800 -1,805 Descending Houston Center
Mon 20:44:47 30.7131 -93.8825 219° Southwest 397 457 24,300 -2,177 Descending Houston Center
Mon 20:45:49 30.6306 -93.9608 219° Southwest 389 448 22,300 -1,935 Descending Houston Center
Mon 20:46:51 30.5478 -94.0369 218° Southwest 384 442 20,300 -2,061 Descending Houston Center
Mon 20:47:28 30.4906 -94.0906 219° Southwest 375 432 18,900 -1,967 Descending Houston Center
Mon 20:47:52 30.4692 -94.1117 220° Southwest 373 429 18,300 -1,714 Descending Houston Center
Mon 20:48:17 30.4289 -94.1475 217° Southwest 362 417 17,500 -1,645 Descending Houston Center
Mon 20:48:54 30.3917 -94.1831 219° Southwest 361 415 16,600 -1,967 Descending Houston Center
Mon 20:49:18 30.3483 -94.2236 219° Southwest 353 406 15,500 -2,032 Descending Houston Center
Mon 20:49:56 30.3261 -94.2667 239° Southwest 363 418 14,500 -1,967 Descending Houston Center
Mon 20:50:19 30.3056 -94.3236 247° West 365 420 13,500 -2,032 Descending Houston Center
Mon 20:50:58 30.2825 -94.3936 249° West 356 410 12,400 -1,701 Descending Houston Center
Mon 20:51:26 30.2650 -94.4428 248° West 351 404 11,600 -1,377 Descending Houston Center
Mon 20:51:59 30.2464 -94.4942 247° West 353 406 11,000 -1,475 Descending Houston Center
Mon 20:52:27 30.2272 -94.5519 249° West 353 406 10,100 -871 Descending Houston Center
Mon 20:53:01 30.2117 -94.5992 249° West 353 406 10,100 -97 Level Houston Center
Mon 20:53:29 30.1894 -94.6608 247° West 351 404 10,000  Descending Houston Center
Mon 20:54:03 30.1742 -94.7025 247° West 350 403 10,100  Climbing Houston Center
Mon 20:54:30 30.1511 -94.7647 247° West 350 403 10,000  Descending Houston Center
Mon 20:55:04 30.1389 -94.8067 251° West 349 402 10,100  Climbing Houston Center
Mon 20:55:31 30.1169 -94.8681 248° West 348 400 10,000 -97 Descending Houston Center
Mon 20:56:06 30.1086 -94.9039 255° West 321 369 10,000 -1,082 Level Houston Center
Mon 20:56:32 30.1061 -94.9542 267° West 265 305 8,900 -2,032 Descending Houston Center
Mon 20:57:08 30.1058 -95.0058 270° West 269 310 7,900 -1,967 Descending Houston Center
Mon 20:57:33 30.1058 -95.0411 270° West 260 299 6,900 -1,475 Descending Houston Center
Mon 20:58:09 30.1069 -95.0914 271° West 269 310 6,400 -885 Descending Houston Center
Mon 20:58:34 30.1064 -95.1353 269° West 272 313 6,000 -290 Descending Houston Center
Mon 20:59:11 30.1061 -95.1786 270° West 272 313 6,100  Climbing Houston Center
Mon 20:59:30 30.1075 -95.2147 273° West 272 313 6,000  Descending Houston Center
Mon 21:00:13 30.1067 -95.2642 269° West 268 308 6,100  Climbing Houston Center
Mon 21:00:31 30.1069 -95.3019 270° West 270 311 6,000  Descending Houston Center
Mon 21:01:14 30.1075 -95.3511 271° West 271 312 6,100 -358 Climbing Houston Center
Mon 21:01:38 30.1075 -95.3983 270° West 264 304 5,600 -1,645 Descending Houston Center
Mon 21:02:16 30.1072 -95.4319 269° West 255 293 4,400 -2,262 Descending Houston Center
Mon 21:02:39 30.1061 -95.4758 268° West 237 273 3,300 -1,355 Descending Houston Center
Mon 21:03:18 30.1078 -95.5233 272° West 244 281 3,000 -295 Descending Houston Center
Mon 21:03:40 30.1064 -95.5483 266° West 224 258 3,000 -98 Level Houston Center
Mon 21:04:19 30.1061 -95.5947 270° West 234 269 2,900  Descending Houston Center
Mon 21:04:47 30.0822 -95.6067 203° Southwest 188 216 3,000 97 Climbing Houston Center
Mon 21:05:21 30.0589 -95.6036 174° South 202 232 3,000  Level Houston Center
Mon 21:05:36 30.0472 -95.5914 138° Southeast 172 198 3,000  Level Houston Center
Mon 21:06:37 30.0278 -95.5406 114° Southeast 171 197 3,000  Level Houston Center

Login

Don't have an account? Register now (free) for customized features, flight alerts, and more!